sensor_id;sensor_type;location;lat;lon;timestamp;P1;durP1;ratioP1;P2;durP2;ratioP2
10721;SDS011;5412;59.450;18.124;2023-07-31T00:00:25;6.03;;;5.43;;
10721;SDS011;5412;59.450;18.124;2023-07-31T00:02:51;5.78;;;5.10;;
10721;SDS011;5412;59.450;18.124;2023-07-31T00:05:17;5.70;;;5.20;;
10721;SDS011;5412;59.450;18.124;2023-07-31T00:07:43;6.18;;;5.63;;
10721;SDS011;5412;59.450;18.124;2023-07-31T00:10:09;5.97;;;5.40;;
10721;SDS011;5412;59.450;18.124;2023-07-31T00:12:35;6.60;;;5.43;;
10721;SDS011;5412;59.450;18.124;2023-07-31T00:15:01;5.38;;;4.50;;
10721;SDS011;5412;59.450;18.124;2023-07-31T00:17:27;6.18;;;5.57;;
10721;SDS011;5412;59.450;18.124;2023-07-31T00:19:53;5.03;;;4.57;;
10721;SDS011;5412;59.450;18.124;2023-07-31T00:22:19;5.80;;;5.05;;
10721;SDS011;5412;59.450;18.124;2023-07-31T00:24:44;6.85;;;5.93;;
10721;SDS011;5412;59.450;18.124;2023-07-31T00:27:10;6.20;;;4.95;;
10721;SDS011;5412;59.450;18.124;2023-07-31T00:29:36;6.10;;;5.50;;
10721;SDS011;5412;59.450;18.124;2023-07-31T00:32:02;6.20;;;5.60;;
10721;SDS011;5412;59.450;18.124;2023-07-31T00:34:27;7.53;;;5.95;;
10721;SDS011;5412;59.450;18.124;2023-07-31T00:36:53;8.80;;;6.93;;
10721;SDS011;5412;59.450;18.124;2023-07-31T00:39:19;7.22;;;6.50;;
10721;SDS011;5412;59.450;18.124;2023-07-31T00:41:44;8.45;;;6.82;;
10721;SDS011;5412;59.450;18.124;2023-07-31T00:44:10;7.40;;;6.20;;
10721;SDS011;5412;59.450;18.124;2023-07-31T00:46:36;7.85;;;6.35;;
10721;SDS011;5412;59.450;18.124;2023-07-31T00:49:02;7.05;;;6.35;;
10721;SDS011;5412;59.450;18.124;2023-07-31T00:51:28;9.52;;;6.00;;
10721;SDS011;5412;59.450;18.124;2023-07-31T00:53:54;7.35;;;6.10;;
10721;SDS011;5412;59.450;18.124;2023-07-31T00:56:21;6.72;;;5.78;;
10721;SDS011;5412;59.450;18.124;2023-07-31T00:58:47;7.55;;;6.50;;
10721;SDS011;5412;59.450;18.124;2023-07-31T01:01:13;6.40;;;5.70;;
10721;SDS011;5412;59.450;18.124;2023-07-31T01:03:39;7.35;;;6.65;;
10721;SDS011;5412;59.450;18.124;2023-07-31T01:06:09;8.07;;;6.55;;
10721;SDS011;5412;59.450;18.124;2023-07-31T01:11:29;6.72;;;6.13;;
10721;SDS011;5412;59.450;18.124;2023-07-31T01:13:56;6.65;;;6.05;;
10721;SDS011;5412;59.450;18.124;2023-07-31T01:16:23;8.90;;;6.18;;
10721;SDS011;5412;59.450;18.124;2023-07-31T01:18:50;7.20;;;6.28;;
10721;SDS011;5412;59.450;18.124;2023-07-31T01:21:21;7.82;;;6.00;;
10721;SDS011;5412;59.450;18.124;2023-07-31T01:26:47;6.30;;;5.70;;
10721;SDS011;5412;59.450;18.124;2023-07-31T01:29:23;5.90;;;5.32;;
10721;SDS011;5412;59.450;18.124;2023-07-31T01:31:57;6.97;;;5.50;;
10721;SDS011;5412;59.450;18.124;2023-07-31T01:34:28;5.75;;;5.15;;
10721;SDS011;5412;59.450;18.124;2023-07-31T01:36:55;7.45;;;6.20;;
10721;SDS011;5412;59.450;18.124;2023-07-31T01:39:23;6.18;;;5.43;;
10721;SDS011;5412;59.450;18.124;2023-07-31T01:41:49;6.38;;;5.78;;
10721;SDS011;5412;59.450;18.124;2023-07-31T01:44:14;7.93;;;5.75;;
10721;SDS011;5412;59.450;18.124;2023-07-31T01:46:40;7.38;;;5.22;;
10721;SDS011;5412;59.450;18.124;2023-07-31T01:49:06;6.35;;;5.75;;
10721;SDS011;5412;59.450;18.124;2023-07-31T01:51:31;6.82;;;5.85;;
10721;SDS011;5412;59.450;18.124;2023-07-31T01:54:00;6.18;;;5.57;;
10721;SDS011;5412;59.450;18.124;2023-07-31T01:56:26;7.40;;;5.88;;
10721;SDS011;5412;59.450;18.124;2023-07-31T01:58:52;6.53;;;5.60;;
10721;SDS011;5412;59.450;18.124;2023-07-31T02:01:18;5.97;;;5.38;;
10721;SDS011;5412;59.450;18.124;2023-07-31T02:03:44;7.20;;;6.50;;
10721;SDS011;5412;59.450;18.124;2023-07-31T02:06:10;7.53;;;6.03;;
10721;SDS011;5412;59.450;18.124;2023-07-31T02:08:35;6.53;;;5.93;;
10721;SDS011;5412;59.450;18.124;2023-07-31T02:11:01;6.78;;;6.13;;
10721;SDS011;5412;59.450;18.124;2023-07-31T02:13:27;8.77;;;6.53;;
10721;SDS011;5412;59.450;18.124;2023-07-31T02:15:53;6.53;;;5.88;;
10721;SDS011;5412;59.450;18.124;2023-07-31T02:18:18;6.30;;;5.70;;
10721;SDS011;5412;59.450;18.124;2023-07-31T02:20:48;6.60;;;5.57;;
10721;SDS011;5412;59.450;18.124;2023-07-31T02:23:15;9.27;;;6.13;;
10721;SDS011;5412;59.450;18.124;2023-07-31T02:25:42;8.38;;;6.53;;
10721;SDS011;5412;59.450;18.124;2023-07-31T02:28:08;7.25;;;6.15;;
10721;SDS011;5412;59.450;18.124;2023-07-31T02:30:33;5.85;;;5.35;;
10721;SDS011;5412;59.450;18.124;2023-07-31T02:32:59;6.88;;;6.10;;
10721;SDS011;5412;59.450;18.124;2023-07-31T02:35:25;6.57;;;5.95;;
10721;SDS011;5412;59.450;18.124;2023-07-31T02:37:50;6.55;;;5.88;;
10721;SDS011;5412;59.450;18.124;2023-07-31T02:40:16;7.90;;;6.38;;
10721;SDS011;5412;59.450;18.124;2023-07-31T02:42:42;8.60;;;6.97;;
10721;SDS011;5412;59.450;18.124;2023-07-31T02:45:08;7.00;;;6.30;;
10721;SDS011;5412;59.450;18.124;2023-07-31T02:47:34;7.82;;;7.03;;
10721;SDS011;5412;59.450;18.124;2023-07-31T02:49:59;7.47;;;6.72;;
10721;SDS011;5412;59.450;18.124;2023-07-31T02:52:26;7.93;;;7.10;;
10721;SDS011;5412;59.450;18.124;2023-07-31T02:54:51;8.05;;;7.25;;
10721;SDS011;5412;59.450;18.124;2023-07-31T02:57:17;7.68;;;6.85;;
10721;SDS011;5412;59.450;18.124;2023-07-31T02:59:43;7.82;;;6.97;;
10721;SDS011;5412;59.450;18.124;2023-07-31T03:02:09;7.18;;;6.47;;
10721;SDS011;5412;59.450;18.124;2023-07-31T03:04:34;8.20;;;7.13;;
10721;SDS011;5412;59.450;18.124;2023-07-31T03:07:00;7.10;;;6.20;;
10721;SDS011;5412;59.450;18.124;2023-07-31T03:09:26;6.72;;;6.07;;
10721;SDS011;5412;59.450;18.124;2023-07-31T03:11:51;7.82;;;7.03;;
10721;SDS011;5412;59.450;18.124;2023-07-31T03:14:17;7.55;;;6.80;;
10721;SDS011;5412;59.450;18.124;2023-07-31T03:16:43;7.43;;;6.65;;
10721;SDS011;5412;59.450;18.124;2023-07-31T03:19:08;6.75;;;6.15;;
10721;SDS011;5412;59.450;18.124;2023-07-31T03:21:34;7.30;;;6.40;;
10721;SDS011;5412;59.450;18.124;2023-07-31T03:24:00;7.70;;;7.00;;
10721;SDS011;5412;59.450;18.124;2023-07-31T03:26:25;8.60;;;7.70;;
10721;SDS011;5412;59.450;18.124;2023-07-31T03:28:51;6.55;;;5.95;;
10721;SDS011;5412;59.450;18.124;2023-07-31T03:31:17;8.98;;;7.10;;
10721;SDS011;5412;59.450;18.124;2023-07-31T03:33:42;7.50;;;6.70;;
10721;SDS011;5412;59.450;18.124;2023-07-31T03:36:08;7.68;;;6.50;;
10721;SDS011;5412;59.450;18.124;2023-07-31T03:38:34;7.47;;;6.78;;
10721;SDS011;5412;59.450;18.124;2023-07-31T03:41:00;8.27;;;6.60;;
10721;SDS011;5412;59.450;18.124;2023-07-31T03:43:25;7.93;;;7.13;;
10721;SDS011;5412;59.450;18.124;2023-07-31T03:45:51;7.53;;;6.72;;
10721;SDS011;5412;59.450;18.124;2023-07-31T03:48:17;7.53;;;6.82;;
10721;SDS011;5412;59.450;18.124;2023-07-31T03:50:42;8.18;;;7.32;;
10721;SDS011;5412;59.450;18.124;2023-07-31T03:53:08;7.38;;;6.68;;
10721;SDS011;5412;59.450;18.124;2023-07-31T03:55:34;8.82;;;7.10;;
10721;SDS011;5412;59.450;18.124;2023-07-31T03:58:00;7.50;;;6.80;;
10721;SDS011;5412;59.450;18.124;2023-07-31T04:00:26;8.65;;;7.15;;
10721;SDS011;5412;59.450;18.124;2023-07-31T04:02:52;7.57;;;6.88;;
10721;SDS011;5412;59.450;18.124;2023-07-31T04:05:18;8.82;;;7.93;;
10721;SDS011;5412;59.450;18.124;2023-07-31T04:07:44;8.68;;;7.88;;
10721;SDS011;5412;59.450;18.124;2023-07-31T04:10:09;8.20;;;7.40;;
10721;SDS011;5412;59.450;18.124;2023-07-31T04:12:35;10.25;;;8.65;;
10721;SDS011;5412;59.450;18.124;2023-07-31T04:15:01;7.80;;;7.00;;
10721;SDS011;5412;59.450;18.124;2023-07-31T04:17:26;11.15;;;8.90;;
10721;SDS011;5412;59.450;18.124;2023-07-31T04:19:52;9.65;;;8.60;;
10721;SDS011;5412;59.450;18.124;2023-07-31T04:22:18;9.13;;;8.23;;
10721;SDS011;5412;59.450;18.124;2023-07-31T04:24:43;9.48;;;8.23;;
10721;SDS011;5412;59.450;18.124;2023-07-31T04:27:09;9.27;;;7.85;;
10721;SDS011;5412;59.450;18.124;2023-07-31T04:29:35;10.35;;;8.10;;
10721;SDS011;5412;59.450;18.124;2023-07-31T04:32:00;8.80;;;7.90;;
10721;SDS011;5412;59.450;18.124;2023-07-31T04:34:26;8.45;;;7.65;;
10721;SDS011;5412;59.450;18.124;2023-07-31T04:36:52;10.73;;;7.80;;
10721;SDS011;5412;59.450;18.124;2023-07-31T04:39:17;8.73;;;7.82;;
10721;SDS011;5412;59.450;18.124;2023-07-31T04:41:43;8.85;;;7.40;;
10721;SDS011;5412;59.450;18.124;2023-07-31T04:44:09;10.88;;;7.22;;
10721;SDS011;5412;59.450;18.124;2023-07-31T04:46:36;8.10;;;7.30;;
10721;SDS011;5412;59.450;18.124;2023-07-31T04:49:02;10.25;;;7.72;;
10721;SDS011;5412;59.450;18.124;2023-07-31T04:51:28;7.82;;;7.03;;
10721;SDS011;5412;59.450;18.124;2023-07-31T04:53:54;8.15;;;7.35;;
10721;SDS011;5412;59.450;18.124;2023-07-31T04:56:19;8.30;;;7.50;;
10721;SDS011;5412;59.450;18.124;2023-07-31T04:58:45;7.72;;;6.93;;
10721;SDS011;5412;59.450;18.124;2023-07-31T05:01:11;7.60;;;6.82;;
10721;SDS011;5412;59.450;18.124;2023-07-31T05:03:36;10.10;;;6.47;;
10721;SDS011;5412;59.450;18.124;2023-07-31T05:06:02;7.60;;;6.75;;
10721;SDS011;5412;59.450;18.124;2023-07-31T05:08:28;10.57;;;7.38;;
10721;SDS011;5412;59.450;18.124;2023-07-31T05:10:54;6.90;;;6.28;;
10721;SDS011;5412;59.450;18.124;2023-07-31T05:13:19;9.10;;;6.13;;
10721;SDS011;5412;59.450;18.124;2023-07-31T05:15:46;6.75;;;6.15;;
10721;SDS011;5412;59.450;18.124;2023-07-31T05:18:14;7.10;;;6.30;;
10721;SDS011;5412;59.450;18.124;2023-07-31T05:20:40;7.35;;;6.65;;
10721;SDS011;5412;59.450;18.124;2023-07-31T05:23:06;8.15;;;7.40;;
10721;SDS011;5412;59.450;18.124;2023-07-31T05:25:32;8.73;;;7.80;;
10721;SDS011;5412;59.450;18.124;2023-07-31T05:27:57;8.82;;;7.85;;
10721;SDS011;5412;59.450;18.124;2023-07-31T05:30:23;8.52;;;7.63;;
10721;SDS011;5412;59.450;18.124;2023-07-31T05:32:49;8.00;;;6.75;;
10721;SDS011;5412;59.450;18.124;2023-07-31T05:35:14;7.30;;;6.60;;
10721;SDS011;5412;59.450;18.124;2023-07-31T05:37:40;7.95;;;6.93;;
10721;SDS011;5412;59.450;18.124;2023-07-31T05:40:06;8.57;;;7.38;;
10721;SDS011;5412;59.450;18.124;2023-07-31T05:42:32;7.90;;;7.10;;
10721;SDS011;5412;59.450;18.124;2023-07-31T05:44:58;11.88;;;7.45;;
10721;SDS011;5412;59.450;18.124;2023-07-31T05:47:24;7.05;;;5.90;;
10721;SDS011;5412;59.450;18.124;2023-07-31T05:49:49;6.45;;;5.85;;
10721;SDS011;5412;59.450;18.124;2023-07-31T05:52:17;6.43;;;5.53;;
10721;SDS011;5412;59.450;18.124;2023-07-31T05:54:44;5.60;;;5.10;;
10721;SDS011;5412;59.450;18.124;2023-07-31T05:57:11;5.63;;;5.13;;
10721;SDS011;5412;59.450;18.124;2023-07-31T05:59:37;4.97;;;4.57;;
10721;SDS011;5412;59.450;18.124;2023-07-31T06:02:03;5.90;;;5.40;;
10721;SDS011;5412;59.450;18.124;2023-07-31T06:04:29;5.07;;;4.55;;
10721;SDS011;5412;59.450;18.124;2023-07-31T06:06:54;5.20;;;4.70;;
10721;SDS011;5412;59.450;18.124;2023-07-31T06:09:21;5.53;;;5.03;;
10721;SDS011;5412;59.450;18.124;2023-07-31T06:11:46;5.20;;;4.70;;
10721;SDS011;5412;59.450;18.124;2023-07-31T06:14:12;7.13;;;5.35;;
10721;SDS011;5412;59.450;18.124;2023-07-31T06:16:38;5.40;;;4.90;;
10721;SDS011;5412;59.450;18.124;2023-07-31T06:19:03;4.93;;;4.53;;
10721;SDS011;5412;59.450;18.124;2023-07-31T06:21:29;5.55;;;5.00;;
10721;SDS011;5412;59.450;18.124;2023-07-31T06:23:56;6.75;;;6.05;;
10721;SDS011;5412;59.450;18.124;2023-07-31T06:26:21;5.78;;;5.25;;
10721;SDS011;5412;59.450;18.124;2023-07-31T06:28:47;9.55;;;6.35;;
10721;SDS011;5412;59.450;18.124;2023-07-31T06:31:13;7.95;;;6.80;;
10721;SDS011;5412;59.450;18.124;2023-07-31T06:33:39;8.35;;;6.93;;
10721;SDS011;5412;59.450;18.124;2023-07-31T06:36:05;8.30;;;6.85;;
10721;SDS011;5412;59.450;18.124;2023-07-31T06:38:31;8.90;;;8.00;;
10721;SDS011;5412;59.450;18.124;2023-07-31T06:40:57;7.95;;;6.80;;
10721;SDS011;5412;59.450;18.124;2023-07-31T06:43:22;7.38;;;6.38;;
10721;SDS011;5412;59.450;18.124;2023-07-31T06:45:48;9.15;;;6.97;;
10721;SDS011;5412;59.450;18.124;2023-07-31T06:48:16;10.07;;;7.45;;
10721;SDS011;5412;59.450;18.124;2023-07-31T06:50:42;9.63;;;7.10;;
10721;SDS011;5412;59.450;18.124;2023-07-31T06:53:08;12.20;;;8.32;;
10721;SDS011;5412;59.450;18.124;2023-07-31T06:55:33;8.73;;;7.82;;
10721;SDS011;5412;59.450;18.124;2023-07-31T06:57:59;8.30;;;7.45;;
10721;SDS011;5412;59.450;18.124;2023-07-31T07:00:25;7.95;;;7.10;;
10721;SDS011;5412;59.450;18.124;2023-07-31T07:02:51;7.25;;;6.53;;
10721;SDS011;5412;59.450;18.124;2023-07-31T07:05:17;8.95;;;7.05;;
10721;SDS011;5412;59.450;18.124;2023-07-31T07:07:43;7.13;;;6.18;;
10721;SDS011;5412;59.450;18.124;2023-07-31T07:10:09;10.30;;;6.60;;
10721;SDS011;5412;59.450;18.124;2023-07-31T07:12:35;9.20;;;6.53;;
10721;SDS011;5412;59.450;18.124;2023-07-31T07:15:02;7.38;;;6.78;;
10721;SDS011;5412;59.450;18.124;2023-07-31T07:17:28;6.55;;;5.90;;
10721;SDS011;5412;59.450;18.124;2023-07-31T07:19:56;7.85;;;6.93;;
10721;SDS011;5412;59.450;18.124;2023-07-31T07:22:22;8.73;;;6.38;;
10721;SDS011;5412;59.450;18.124;2023-07-31T07:24:49;9.70;;;6.32;;
10721;SDS011;5412;59.450;18.124;2023-07-31T07:27:14;7.13;;;5.70;;
10721;SDS011;5412;59.450;18.124;2023-07-31T07:29:40;6.93;;;5.25;;
10721;SDS011;5412;59.450;18.124;2023-07-31T07:32:06;8.35;;;5.18;;
10721;SDS011;5412;59.450;18.124;2023-07-31T07:34:32;10.18;;;4.88;;
10721;SDS011;5412;59.450;18.124;2023-07-31T07:36:57;6.10;;;4.75;;
10721;SDS011;5412;59.450;18.124;2023-07-31T07:39:23;6.47;;;4.90;;
10721;SDS011;5412;59.450;18.124;2023-07-31T07:41:49;5.60;;;3.90;;
10721;SDS011;5412;59.450;18.124;2023-07-31T07:44:15;6.88;;;3.97;;
10721;SDS011;5412;59.450;18.124;2023-07-31T07:46:41;5.88;;;3.60;;
10721;SDS011;5412;59.450;18.124;2023-07-31T07:49:07;4.07;;;3.22;;
10721;SDS011;5412;59.450;18.124;2023-07-31T07:51:33;5.13;;;3.17;;
10721;SDS011;5412;59.450;18.124;2023-07-31T07:53:58;7.28;;;2.70;;
10721;SDS011;5412;59.450;18.124;2023-07-31T07:56:25;3.42;;;2.70;;
10721;SDS011;5412;59.450;18.124;2023-07-31T07:58:52;3.45;;;2.50;;
10721;SDS011;5412;59.450;18.124;2023-07-31T08:01:18;5.20;;;2.58;;
10721;SDS011;5412;59.450;18.124;2023-07-31T08:03:44;4.50;;;2.28;;
10721;SDS011;5412;59.450;18.124;2023-07-31T08:06:09;3.78;;;2.53;;
10721;SDS011;5412;59.450;18.124;2023-07-31T08:08:36;3.63;;;2.00;;
10721;SDS011;5412;59.450;18.124;2023-07-31T08:11:02;5.03;;;2.70;;
10721;SDS011;5412;59.450;18.124;2023-07-31T08:13:28;7.28;;;3.33;;
10721;SDS011;5412;59.450;18.124;2023-07-31T08:15:53;5.40;;;2.83;;
10721;SDS011;5412;59.450;18.124;2023-07-31T08:18:19;7.18;;;2.90;;
10721;SDS011;5412;59.450;18.124;2023-07-31T08:20:45;6.00;;;2.60;;
10721;SDS011;5412;59.450;18.124;2023-07-31T08:23:11;5.03;;;2.70;;
10721;SDS011;5412;59.450;18.124;2023-07-31T08:25:37;4.72;;;3.00;;
10721;SDS011;5412;59.450;18.124;2023-07-31T08:28:03;4.75;;;2.97;;
10721;SDS011;5412;59.450;18.124;2023-07-31T08:30:29;3.97;;;2.95;;
10721;SDS011;5412;59.450;18.124;2023-07-31T08:32:55;5.40;;;2.60;;
10721;SDS011;5412;59.450;18.124;2023-07-31T08:35:22;4.70;;;2.65;;
10721;SDS011;5412;59.450;18.124;2023-07-31T08:37:49;6.07;;;2.45;;
10721;SDS011;5412;59.450;18.124;2023-07-31T08:40:15;8.52;;;2.50;;
10721;SDS011;5412;59.450;18.124;2023-07-31T08:42:44;4.43;;;2.67;;
10721;SDS011;5412;59.450;18.124;2023-07-31T08:45:14;3.25;;;2.50;;
10721;SDS011;5412;59.450;18.124;2023-07-31T08:47:46;2.58;;;2.30;;
10721;SDS011;5412;59.450;18.124;2023-07-31T08:50:14;4.70;;;2.03;;
10721;SDS011;5412;59.450;18.124;2023-07-31T08:52:41;5.13;;;2.40;;
10721;SDS011;5412;59.450;18.124;2023-07-31T08:55:07;4.78;;;2.40;;
10721;SDS011;5412;59.450;18.124;2023-07-31T08:57:34;2.58;;;2.13;;
10721;SDS011;5412;59.450;18.124;2023-07-31T09:00:01;4.13;;;2.20;;
10721;SDS011;5412;59.450;18.124;2023-07-31T09:02:31;4.15;;;2.33;;
10721;SDS011;5412;59.450;18.124;2023-07-31T09:05:05;4.15;;;2.00;;
10721;SDS011;5412;59.450;18.124;2023-07-31T09:07:33;2.53;;;2.03;;
10721;SDS011;5412;59.450;18.124;2023-07-31T09:10:00;4.25;;;2.20;;
10721;SDS011;5412;59.450;18.124;2023-07-31T09:12:26;3.75;;;2.10;;
10721;SDS011;5412;59.450;18.124;2023-07-31T09:14:51;3.83;;;1.63;;
10721;SDS011;5412;59.450;18.124;2023-07-31T09:17:28;4.68;;;2.17;;
10721;SDS011;5412;59.450;18.124;2023-07-31T09:19:57;4.85;;;2.10;;
10721;SDS011;5412;59.450;18.124;2023-07-31T09:22:32;4.75;;;2.35;;
10721;SDS011;5412;59.450;18.124;2023-07-31T09:30:19;3.85;;;2.10;;
10721;SDS011;5412;59.450;18.124;2023-07-31T09:32:45;3.15;;;1.88;;
10721;SDS011;5412;59.450;18.124;2023-07-31T09:37:58;4.13;;;2.35;;
10721;SDS011;5412;59.450;18.124;2023-07-31T09:40:35;3.08;;;2.00;;
10721;SDS011;5412;59.450;18.124;2023-07-31T09:43:06;2.78;;;2.17;;
10721;SDS011;5412;59.450;18.124;2023-07-31T09:45:37;6.70;;;2.50;;
10721;SDS011;5412;59.450;18.124;2023-07-31T09:48:07;7.25;;;2.28;;
10721;SDS011;5412;59.450;18.124;2023-07-31T09:50:34;3.42;;;2.35;;
10721;SDS011;5412;59.450;18.124;2023-07-31T09:53:07;5.93;;;2.17;;
10721;SDS011;5412;59.450;18.124;2023-07-31T09:55:33;3.50;;;2.00;;
10721;SDS011;5412;59.450;18.124;2023-07-31T09:57:59;5.22;;;1.85;;
10721;SDS011;5412;59.450;18.124;2023-07-31T10:00:31;4.88;;;1.70;;
10721;SDS011;5412;59.450;18.124;2023-07-31T10:03:04;8.52;;;1.88;;
10721;SDS011;5412;59.450;18.124;2023-07-31T10:05:36;3.20;;;1.70;;
10721;SDS011;5412;59.450;18.124;2023-07-31T10:08:04;2.33;;;1.50;;
10721;SDS011;5412;59.450;18.124;2023-07-31T10:10:32;5.03;;;1.92;;
10721;SDS011;5412;59.450;18.124;2023-07-31T10:12:59;5.95;;;1.92;;
10721;SDS011;5412;59.450;18.124;2023-07-31T10:15:26;3.85;;;1.90;;
10721;SDS011;5412;59.450;18.124;2023-07-31T10:17:53;4.75;;;1.60;;
10721;SDS011;5412;59.450;18.124;2023-07-31T10:20:20;3.47;;;1.98;;
10721;SDS011;5412;59.450;18.124;2023-07-31T10:22:46;6.30;;;1.60;;
10721;SDS011;5412;59.450;18.124;2023-07-31T10:25:15;2.83;;;1.48;;
10721;SDS011;5412;59.450;18.124;2023-07-31T10:27:42;2.05;;;1.48;;
10721;SDS011;5412;59.450;18.124;2023-07-31T10:30:08;3.58;;;1.90;;
10721;SDS011;5412;59.450;18.124;2023-07-31T10:32:38;3.67;;;1.70;;
10721;SDS011;5412;59.450;18.124;2023-07-31T10:35:05;3.72;;;1.88;;
10721;SDS011;5412;59.450;18.124;2023-07-31T10:42:52;3.30;;;1.48;;
10721;SDS011;5412;59.450;18.124;2023-07-31T10:45:27;2.60;;;1.60;;
10721;SDS011;5412;59.450;18.124;2023-07-31T10:48:03;4.45;;;1.50;;
10721;SDS011;5412;59.450;18.124;2023-07-31T10:50:31;2.55;;;1.58;;
10721;SDS011;5412;59.450;18.124;2023-07-31T10:52:58;2.95;;;1.58;;
10721;SDS011;5412;59.450;18.124;2023-07-31T10:55:41;4.70;;;1.70;;
10721;SDS011;5412;59.450;18.124;2023-07-31T10:58:09;2.03;;;1.40;;
10721;SDS011;5412;59.450;18.124;2023-07-31T11:00:42;1.98;;;1.40;;
10721;SDS011;5412;59.450;18.124;2023-07-31T11:03:15;2.85;;;1.40;;
10721;SDS011;5412;59.450;18.124;2023-07-31T11:05:49;3.50;;;1.52;;
10721;SDS011;5412;59.450;18.124;2023-07-31T11:08:25;2.33;;;1.50;;
10721;SDS011;5412;59.450;18.124;2023-07-31T11:13:27;3.63;;;1.60;;
10721;SDS011;5412;59.450;18.124;2023-07-31T11:15:53;2.97;;;1.70;;
10721;SDS011;5412;59.450;18.124;2023-07-31T11:18:18;2.20;;;1.50;;
10721;SDS011;5412;59.450;18.124;2023-07-31T11:20:44;2.53;;;1.30;;
10721;SDS011;5412;59.450;18.124;2023-07-31T11:23:11;2.88;;;1.20;;
10721;SDS011;5412;59.450;18.124;2023-07-31T11:25:37;2.60;;;1.50;;
10721;SDS011;5412;59.450;18.124;2023-07-31T11:28:12;2.17;;;1.35;;
10721;SDS011;5412;59.450;18.124;2023-07-31T11:30:40;2.47;;;1.92;;
10721;SDS011;5412;59.450;18.124;2023-07-31T11:33:07;3.30;;;1.50;;
10721;SDS011;5412;59.450;18.124;2023-07-31T11:35:55;3.53;;;1.67;;
10721;SDS011;5412;59.450;18.124;2023-07-31T11:38:30;2.60;;;1.48;;
10721;SDS011;5412;59.450;18.124;2023-07-31T11:40:58;3.35;;;2.00;;
10721;SDS011;5412;59.450;18.124;2023-07-31T11:43:25;2.25;;;1.75;;
10721;SDS011;5412;59.450;18.124;2023-07-31T11:45:57;3.92;;;2.22;;
10721;SDS011;5412;59.450;18.124;2023-07-31T11:48:31;2.60;;;1.92;;
10721;SDS011;5412;59.450;18.124;2023-07-31T11:51:04;3.92;;;2.05;;
10721;SDS011;5412;59.450;18.124;2023-07-31T11:53:51;3.17;;;2.05;;
10721;SDS011;5412;59.450;18.124;2023-07-31T11:56:19;5.18;;;2.30;;
10721;SDS011;5412;59.450;18.124;2023-07-31T11:58:50;4.03;;;2.20;;
10721;SDS011;5412;59.450;18.124;2023-07-31T12:01:24;6.68;;;2.42;;
10721;SDS011;5412;59.450;18.124;2023-07-31T12:03:52;3.97;;;1.95;;
10721;SDS011;5412;59.450;18.124;2023-07-31T12:06:18;3.83;;;2.03;;
10721;SDS011;5412;59.450;18.124;2023-07-31T12:08:46;3.08;;;1.75;;
10721;SDS011;5412;59.450;18.124;2023-07-31T12:11:12;6.25;;;2.25;;
10721;SDS011;5412;59.450;18.124;2023-07-31T12:13:42;3.15;;;1.90;;
10721;SDS011;5412;59.450;18.124;2023-07-31T12:16:08;5.13;;;2.17;;
10721;SDS011;5412;59.450;18.124;2023-07-31T12:18:35;4.65;;;2.15;;
10721;SDS011;5412;59.450;18.124;2023-07-31T12:21:02;4.28;;;2.20;;
10721;SDS011;5412;59.450;18.124;2023-07-31T12:23:31;3.88;;;1.75;;
10721;SDS011;5412;59.450;18.124;2023-07-31T12:28:30;3.88;;;2.00;;
10721;SDS011;5412;59.450;18.124;2023-07-31T12:31:00;6.53;;;2.88;;
10721;SDS011;5412;59.450;18.124;2023-07-31T12:33:32;4.05;;;2.30;;
10721;SDS011;5412;59.450;18.124;2023-07-31T12:36:00;3.25;;;2.10;;
10721;SDS011;5412;59.450;18.124;2023-07-31T12:38:28;6.88;;;2.17;;
10721;SDS011;5412;59.450;18.124;2023-07-31T12:40:54;4.80;;;2.17;;
10721;SDS011;5412;59.450;18.124;2023-07-31T12:43:19;2.85;;;1.90;;
10721;SDS011;5412;59.450;18.124;2023-07-31T12:45:45;4.80;;;1.77;;
10721;SDS011;5412;59.450;18.124;2023-07-31T12:48:12;2.05;;;1.67;;
10721;SDS011;5412;59.450;18.124;2023-07-31T12:50:38;2.20;;;1.38;;
10721;SDS011;5412;59.450;18.124;2023-07-31T12:53:04;4.50;;;2.00;;
10721;SDS011;5412;59.450;18.124;2023-07-31T12:55:30;5.55;;;2.15;;
10721;SDS011;5412;59.450;18.124;2023-07-31T12:57:56;4.30;;;1.70;;
10721;SDS011;5412;59.450;18.124;2023-07-31T13:00:22;5.40;;;2.20;;
10721;SDS011;5412;59.450;18.124;2023-07-31T13:02:48;6.28;;;2.30;;
10721;SDS011;5412;59.450;18.124;2023-07-31T13:05:14;4.28;;;2.15;;
10721;SDS011;5412;59.450;18.124;2023-07-31T13:07:40;4.15;;;2.20;;
10721;SDS011;5412;59.450;18.124;2023-07-31T13:10:06;2.63;;;2.13;;
10721;SDS011;5412;59.450;18.124;2023-07-31T13:12:33;3.15;;;2.00;;
10721;SDS011;5412;59.450;18.124;2023-07-31T13:14:59;5.00;;;2.33;;
10721;SDS011;5412;59.450;18.124;2023-07-31T13:17:25;3.15;;;2.08;;
10721;SDS011;5412;59.450;18.124;2023-07-31T13:19:51;4.07;;;1.73;;
10721;SDS011;5412;59.450;18.124;2023-07-31T13:22:17;7.78;;;2.08;;
10721;SDS011;5412;59.450;18.124;2023-07-31T13:24:43;2.85;;;1.67;;
10721;SDS011;5412;59.450;18.124;2023-07-31T13:27:09;4.20;;;2.15;;
10721;SDS011;5412;59.450;18.124;2023-07-31T13:29:34;4.65;;;1.83;;
10721;SDS011;5412;59.450;18.124;2023-07-31T13:32:00;3.60;;;2.10;;
10721;SDS011;5412;59.450;18.124;2023-07-31T13:34:26;5.60;;;1.80;;
10721;SDS011;5412;59.450;18.124;2023-07-31T13:36:53;3.70;;;1.80;;
10721;SDS011;5412;59.450;18.124;2023-07-31T13:39:20;5.32;;;1.83;;
10721;SDS011;5412;59.450;18.124;2023-07-31T13:41:45;1.13;;;1.00;;
10721;SDS011;5412;59.450;18.124;2023-07-31T13:44:11;2.90;;;1.50;;
10721;SDS011;5412;59.450;18.124;2023-07-31T13:46:37;2.22;;;1.42;;
10721;SDS011;5412;59.450;18.124;2023-07-31T13:49:03;2.33;;;1.30;;
10721;SDS011;5412;59.450;18.124;2023-07-31T13:51:28;1.23;;;1.10;;
10721;SDS011;5412;59.450;18.124;2023-07-31T13:53:54;2.78;;;1.10;;
10721;SDS011;5412;59.450;18.124;2023-07-31T13:56:20;1.88;;;1.17;;
10721;SDS011;5412;59.450;18.124;2023-07-31T13:58:45;4.40;;;1.80;;
10721;SDS011;5412;59.450;18.124;2023-07-31T14:01:11;1.20;;;1.10;;
10721;SDS011;5412;59.450;18.124;2023-07-31T14:03:37;1.75;;;1.38;;
10721;SDS011;5412;59.450;18.124;2023-07-31T14:06:03;1.40;;;1.30;;
10721;SDS011;5412;59.450;18.124;2023-07-31T14:08:29;2.30;;;1.33;;
10721;SDS011;5412;59.450;18.124;2023-07-31T14:10:55;2.70;;;1.30;;
10721;SDS011;5412;59.450;18.124;2023-07-31T14:13:21;2.08;;;1.48;;
10721;SDS011;5412;59.450;18.124;2023-07-31T14:15:47;4.85;;;1.45;;
10721;SDS011;5412;59.450;18.124;2023-07-31T14:18:13;2.67;;;1.52;;
10721;SDS011;5412;59.450;18.124;2023-07-31T14:20:38;1.13;;;1.08;;
10721;SDS011;5412;59.450;18.124;2023-07-31T14:23:04;1.40;;;1.08;;
10721;SDS011;5412;59.450;18.124;2023-07-31T14:25:30;1.33;;;1.15;;
10721;SDS011;5412;59.450;18.124;2023-07-31T14:28:16;3.58;;;1.40;;
10721;SDS011;5412;59.450;18.124;2023-07-31T14:30:42;1.58;;;1.23;;
10721;SDS011;5412;59.450;18.124;2023-07-31T14:33:08;2.92;;;1.20;;
10721;SDS011;5412;59.450;18.124;2023-07-31T14:35:34;2.13;;;1.15;;
10721;SDS011;5412;59.450;18.124;2023-07-31T14:38:00;1.52;;;1.17;;
10721;SDS011;5412;59.450;18.124;2023-07-31T14:40:25;1.23;;;1.13;;
10721;SDS011;5412;59.450;18.124;2023-07-31T14:42:51;1.30;;;1.13;;
10721;SDS011;5412;59.450;18.124;2023-07-31T14:45:17;2.53;;;1.38;;
10721;SDS011;5412;59.450;18.124;2023-07-31T14:47:43;2.58;;;1.20;;
10721;SDS011;5412;59.450;18.124;2023-07-31T14:50:08;1.75;;;1.20;;
10721;SDS011;5412;59.450;18.124;2023-07-31T14:52:34;1.98;;;1.45;;
10721;SDS011;5412;59.450;18.124;2023-07-31T14:55:00;1.85;;;1.38;;
10721;SDS011;5412;59.450;18.124;2023-07-31T14:57:26;1.35;;;1.10;;
10721;SDS011;5412;59.450;18.124;2023-07-31T14:59:52;1.45;;;1.23;;
10721;SDS011;5412;59.450;18.124;2023-07-31T15:02:17;1.52;;;1.00;;
10721;SDS011;5412;59.450;18.124;2023-07-31T15:04:43;1.50;;;1.30;;
10721;SDS011;5412;59.450;18.124;2023-07-31T15:07:09;2.28;;;1.30;;
10721;SDS011;5412;59.450;18.124;2023-07-31T15:09:34;2.17;;;1.33;;